KDUA/DUA METAR and TAF weather

Enter ICAO airport designator
Station Type Date Time Source
KDUA METAR 2021/03/09 10:15 UTC NOAA

KDUA 091015Z AUTO 18009KT 160V220 10SM CLR 13/10 A3023 RMK AO2


Station Type Date Time Source
KDUA Decoded METAR 2021/03/09 10:15 UTC NOAA

Durant, Eaker Field Airport, OK, United States (KDUA) 33-56-32N 096-23-40W
Mar 09, 2021 - 05:15 AM EST / 2021.03.09 1015 UTC
Wind: from the S (180 degrees) at 10 MPH (9 KT) (direction variable):0
Visibility: 10 mile(s):0
Sky conditions: clear
Temperature: 55 F (13 C)
Dew Point: 50 F (10 C)
Relative Humidity: 81%
Pressure (altimeter): 30.23 in. Hg (1023 hPa)
ob: KDUA 091015Z AUTO 18009KT 160V220 10SM CLR 13/10 A3023 RMK AO2
cycle: 10

Station Type Date Time Source
KDUA TAF UTC NOAA

Error!

Example: see airport list